createdAt,value
2022-09-16T00:00:24.544Z,95570.22
2022-09-16T00:02:55.034Z,95572.88
2022-09-16T00:05:22.460Z,95566.41
2022-09-16T00:07:48.873Z,95562.56
2022-09-16T00:10:15.458Z,95562.19
2022-09-16T00:12:42.420Z,95558.72
2022-09-16T00:15:09.935Z,95554.41
2022-09-16T00:17:37.802Z,95552.94
2022-09-16T00:20:05.512Z,95550.56
2022-09-16T00:22:31.836Z,95557.72
2022-09-16T00:24:58.139Z,95557.88
2022-09-16T00:27:25.180Z,95541.75
2022-09-16T00:29:51.648Z,95547.63
2022-09-16T00:32:18.042Z,95553.75
2022-09-16T00:34:44.869Z,95548.44
2022-09-16T00:37:11.643Z,95552.94
2022-09-16T00:39:38.020Z,95550.59
2022-09-16T00:42:05.440Z,95551.25
2022-09-16T00:44:51.079Z,95554.50
2022-09-16T00:47:23.156Z,95550.53
2022-09-16T00:49:51.431Z,95542.94
2022-09-16T00:52:18.956Z,95546.16
2022-09-16T00:54:46.339Z,95543.53
2022-09-16T00:57:16.041Z,95544.19
2022-09-16T00:59:46.379Z,95549.94
2022-09-16T01:02:17.566Z,95551.47
2022-09-16T01:04:51.719Z,95550.09
2022-09-16T01:07:34.959Z,95543.56
2022-09-16T01:10:01.405Z,95539.72
2022-09-16T01:12:30.520Z,95544.63
2022-09-16T01:14:58.342Z,95533.25
2022-09-16T01:17:30.399Z,95542.81
2022-09-16T01:20:21.823Z,95532.69
2022-09-16T01:23:27.700Z,95529.69
2022-09-16T01:25:54.282Z,95539.41
2022-09-16T01:28:58.164Z,95538.69
2022-09-16T01:31:34.425Z,95529.03
2022-09-16T01:34:19.958Z,95532.56
2022-09-16T01:37:04.707Z,95536.03
2022-09-16T01:39:59.114Z,95546.16
2022-09-16T01:43:00.801Z,95537.78
2022-09-16T01:45:35.979Z,95548.03
2022-09-16T01:48:23.635Z,95551.25
2022-09-16T01:51:02.534Z,95548.16
2022-09-16T01:53:36.563Z,95540.16
2022-09-16T01:56:15.043Z,95544.47
2022-09-16T01:58:53.163Z,95542.47
2022-09-16T02:01:29.282Z,95545.09
2022-09-16T02:04:03.436Z,95545.66
2022-09-16T02:06:32.189Z,95544.78
2022-09-16T02:09:03.076Z,95543.13
2022-09-16T02:11:29.947Z,95534.06
2022-09-16T02:14:09.612Z,95539.22
2022-09-16T02:16:42.436Z,95536.97
2022-09-16T02:19:14.426Z,95542.47
2022-09-16T02:21:45.635Z,95540.06
2022-09-16T02:24:18.289Z,95538.81
2022-09-16T02:26:54.160Z,95550.22
2022-09-16T02:29:27.231Z,95542.25
2022-09-16T02:32:00.089Z,95540.66
2022-09-16T02:34:32.715Z,95535.28
2022-09-16T02:37:05.550Z,95537.50
2022-09-16T02:39:39.442Z,95538.09
2022-09-16T02:42:06.998Z,95546.81
2022-09-16T02:44:34.247Z,95556.31
2022-09-16T02:47:25.126Z,95552.00
2022-09-16T02:49:57.134Z,95547.25
2022-09-16T02:52:38.530Z,95550.22
2022-09-16T02:55:14.087Z,95543.81
2022-09-16T02:57:42.055Z,95538.38
2022-09-16T03:00:09.732Z,95535.88
2022-09-16T03:02:36.908Z,95532.91
2022-09-16T03:05:04.499Z,95532.97
2022-09-16T03:07:30.912Z,95538.75
2022-09-16T03:09:57.608Z,95544.63
2022-09-16T03:12:37.986Z,95537.66
2022-09-16T03:15:23.180Z,95534.84
2022-09-16T03:17:55.483Z,95525.50
2022-09-16T03:20:41.611Z,95521.91
2022-09-16T03:23:28.792Z,95525.91
2022-09-16T03:26:37.446Z,95522.28
2022-09-16T03:29:17.991Z,95529.47
2022-09-16T03:31:51.166Z,95531.19
2022-09-16T03:34:34.164Z,95522.19
2022-09-16T03:37:04.637Z,95512.72
2022-09-16T03:39:31.996Z,95521.09
2022-09-16T03:42:03.165Z,95516.81
2022-09-16T03:44:35.589Z,95519.88
2022-09-16T03:47:03.832Z,95532.34
2022-09-16T03:49:30.401Z,95531.00
2022-09-16T03:51:57.656Z,95546.06
2022-09-16T03:54:24.894Z,95545.25
2022-09-16T03:56:51.219Z,95546.06
2022-09-16T03:59:17.671Z,95540.41
2022-09-16T04:01:45.750Z,95538.94
2022-09-16T04:04:12.307Z,95534.31
2022-09-16T04:06:38.739Z,95539.13
2022-09-16T04:09:07.726Z,95534.91
2022-09-16T04:11:35.040Z,95538.75
2022-09-16T04:14:01.820Z,95534.50
2022-09-16T04:16:28.740Z,95543.69
2022-09-16T04:18:55.124Z,95546.25
2022-09-16T04:21:21.427Z,95546.59
2022-09-16T04:23:48.805Z,95536.31
2022-09-16T04:26:15.795Z,95541.47
2022-09-16T04:28:42.360Z,95535.72
2022-09-16T04:31:12.903Z,95528.16
2022-09-16T04:33:39.611Z,95537.31
2022-09-16T04:36:14.825Z,95537.25
2022-09-16T04:38:42.958Z,95528.63
2022-09-16T04:41:15.803Z,95529.38
2022-09-16T04:43:42.138Z,95513.94
2022-09-16T04:46:09.473Z,95508.41
2022-09-16T04:48:36.576Z,95506.88
2022-09-16T04:51:10.982Z,95513.19
2022-09-16T04:53:39.156Z,95511.69
2022-09-16T04:56:07.710Z,95517.75
2022-09-16T04:58:34.700Z,95518.91
2022-09-16T05:01:23.428Z,95517.56
2022-09-16T05:03:52.711Z,95526.94
2022-09-16T05:06:24.095Z,95527.72
2022-09-16T05:08:52.388Z,95534.66
2022-09-16T05:11:22.362Z,95536.13
2022-09-16T05:13:48.712Z,95533.00
2022-09-16T05:16:17.835Z,95526.91
2022-09-16T05:18:46.813Z,95524.69
2022-09-16T05:21:15.870Z,95524.97
2022-09-16T05:23:46.761Z,95514.41
2022-09-16T05:26:17.665Z,95522.19
2022-09-16T05:28:44.200Z,95515.78
2022-09-16T05:31:20.393Z,95514.91
2022-09-16T05:34:08.465Z,95513.31
2022-09-16T05:36:38.123Z,95517.50
2022-09-16T05:41:58.047Z,95510.28
2022-09-16T05:44:25.963Z,95508.63
2022-09-16T05:46:52.892Z,95511.28
2022-09-16T05:49:21.443Z,95505.69
2022-09-16T05:51:48.604Z,95513.44
2022-09-16T05:54:18.199Z,95499.81
2022-09-16T05:56:45.599Z,95507.75
2022-09-16T05:59:13.518Z,95496.47
2022-09-16T06:01:39.899Z,95502.56
2022-09-16T06:04:08.152Z,95503.25
2022-09-16T06:06:37.347Z,95504.56
2022-09-16T06:09:14.362Z,95502.59
2022-09-16T06:11:44.071Z,95503.31
2022-09-16T06:14:11.440Z,95497.47
2022-09-16T06:16:37.990Z,95494.00
2022-09-16T06:19:10.666Z,95498.50
2022-09-16T06:21:38.247Z,95488.00
2022-09-16T06:24:08.607Z,95497.25
2022-09-16T06:26:37.511Z,95509.13
2022-09-16T06:29:05.625Z,95504.41
2022-09-16T06:31:32.511Z,95504.97
2022-09-16T06:33:59.348Z,95515.38
2022-09-16T06:36:30.459Z,95502.25
2022-09-16T06:38:56.794Z,95497.31
2022-09-16T06:41:23.954Z,95488.91
2022-09-16T06:43:53.232Z,95492.78
2022-09-16T06:46:22.916Z,95502.31
2022-09-16T06:48:52.772Z,95489.56
2022-09-16T06:51:30.302Z,95483.75
2022-09-16T06:54:05.082Z,95500.22
2022-09-16T06:56:31.568Z,95501.59
2022-09-16T06:58:58.197Z,95508.38
2022-09-16T07:01:28.542Z,95503.13
2022-09-16T07:03:57.307Z,95501.69
2022-09-16T07:06:38.348Z,95503.16
2022-09-16T07:09:11.679Z,95503.16
2022-09-16T07:11:38.035Z,95501.28
2022-09-16T07:14:04.910Z,95508.69
2022-09-16T07:16:32.041Z,95506.22
2022-09-16T07:19:01.081Z,95504.13
2022-09-16T07:21:30.017Z,95510.00
2022-09-16T07:24:03.067Z,95518.81
2022-09-16T07:26:34.867Z,95513.16
2022-09-16T07:29:04.540Z,95530.00
2022-09-16T07:31:33.793Z,95524.59
2022-09-16T07:34:04.645Z,95516.28
2022-09-16T07:36:41.186Z,95527.50
2022-09-16T07:39:08.715Z,95526.47
2022-09-16T07:41:38.508Z,95525.28
2022-09-16T07:44:07.879Z,95526.25
2022-09-16T07:46:36.076Z,95522.88
2022-09-16T07:49:05.481Z,95533.25
2022-09-16T07:51:32.591Z,95513.63
2022-09-16T07:54:05.451Z,95518.56
2022-09-16T07:56:35.386Z,95526.25
2022-09-16T07:59:03.420Z,95528.41
2022-09-16T08:01:31.160Z,95529.09
2022-09-16T08:03:59.016Z,95528.78
2022-09-16T08:06:28.592Z,95538.75
2022-09-16T08:09:02.719Z,95540.31
2022-09-16T08:11:36.692Z,95543.19
2022-09-16T08:14:03.062Z,95539.59
2022-09-16T08:16:29.624Z,95533.09
2022-09-16T08:18:57.809Z,95533.50
2022-09-16T08:21:27.895Z,95533.31
2022-09-16T08:23:54.989Z,95539.94
2022-09-16T08:26:22.094Z,95531.41
2022-09-16T08:29:08.825Z,95536.28
2022-09-16T08:31:37.266Z,95541.28
2022-09-16T08:34:04.247Z,95539.41
2022-09-16T08:36:33.063Z,95550.34
2022-09-16T08:38:59.617Z,95550.66
2022-09-16T08:41:55.400Z,95545.75
2022-09-16T08:44:24.719Z,95556.28
2022-09-16T08:47:00.019Z,95558.00
2022-09-16T08:49:42.514Z,95561.72
2022-09-16T08:52:15.204Z,95565.66
2022-09-16T08:54:46.390Z,95568.19
2022-09-16T08:57:21.168Z,95581.72
2022-09-16T09:00:02.411Z,95573.34
2022-09-16T09:05:47.214Z,95570.81
2022-09-16T09:08:39.681Z,95558.50
2022-09-16T09:11:06.061Z,95567.59
2022-09-16T09:13:50.788Z,95575.00
2022-09-16T09:16:17.642Z,95569.56
2022-09-16T09:19:24.648Z,95565.38
2022-09-16T09:22:03.462Z,95558.81
2022-09-16T09:24:56.950Z,95553.28
2022-09-16T09:27:35.324Z,95562.03
2022-09-16T09:30:08.204Z,95562.38
2022-09-16T09:33:00.841Z,95561.94
2022-09-16T09:35:50.699Z,95566.44
2022-09-16T09:38:43.096Z,95563.44
2022-09-16T09:41:16.660Z,95560.41
2022-09-16T09:43:55.644Z,95555.91
2022-09-16T09:46:29.872Z,95555.16
2022-09-16T09:49:34.454Z,95546.75
2022-09-16T09:52:25.095Z,95548.34
2022-09-16T09:54:52.631Z,95555.56
2022-09-16T09:57:34.439Z,95558.88
2022-09-16T10:00:06.610Z,95552.38
2022-09-16T10:02:33.423Z,95553.25
2022-09-16T10:05:01.444Z,95553.22
2022-09-16T10:07:28.602Z,95558.88
2022-09-16T10:10:04.842Z,95557.00
2022-09-16T10:12:34.973Z,95568.91
2022-09-16T10:15:01.335Z,95571.19
2022-09-16T10:17:31.684Z,95566.84
2022-09-16T10:20:20.862Z,95561.13
2022-09-16T10:22:58.473Z,95567.34
2022-09-16T10:25:26.480Z,95557.09
2022-09-16T10:28:01.690Z,95557.09
2022-09-16T10:30:32.764Z,95540.78
2022-09-16T10:33:14.358Z,95544.16
2022-09-16T10:35:43.994Z,95545.28
2022-09-16T10:38:20.895Z,95546.00
2022-09-16T10:41:14.972Z,95544.00
2022-09-16T10:43:51.215Z,95550.22
2022-09-16T10:46:19.046Z,95548.78
2022-09-16T10:48:47.370Z,95554.56
2022-09-16T10:51:26.528Z,95551.13
2022-09-16T10:53:59.246Z,95546.97
2022-09-16T10:56:31.962Z,95552.56
2022-09-16T10:59:09.354Z,95539.75
2022-09-16T11:01:58.469Z,95537.19
2022-09-16T11:04:31.046Z,95549.19
2022-09-16T11:07:22.492Z,95540.72
2022-09-16T11:10:02.496Z,95545.25
2022-09-16T11:13:02.807Z,95544.78
2022-09-16T11:15:38.111Z,95559.38
2022-09-16T11:18:21.260Z,95544.75
2022-09-16T11:21:00.937Z,95558.59
2022-09-16T11:23:43.869Z,95551.47
2022-09-16T11:26:33.865Z,95555.81
2022-09-16T11:29:26.758Z,95565.91
2022-09-16T11:32:07.758Z,95571.38
2022-09-16T11:34:56.651Z,95569.66
2022-09-16T11:37:42.939Z,95574.84
2022-09-16T11:40:23.934Z,95565.22
2022-09-16T11:43:21.391Z,95571.69
2022-09-16T11:45:53.906Z,95568.75
2022-09-16T11:48:48.879Z,95559.81
2022-09-16T11:51:27.639Z,95564.00
2022-09-16T11:54:13.468Z,95577.25
2022-09-16T11:57:04.114Z,95580.28
2022-09-16T11:59:42.213Z,95583.41
2022-09-16T12:02:50.580Z,95578.38
2022-09-16T12:05:22.022Z,95567.69
2022-09-16T12:07:57.721Z,95565.03
2022-09-16T12:10:28.843Z,95562.28
2022-09-16T12:13:05.347Z,95570.53
2022-09-16T12:15:42.665Z,95563.88
2022-09-16T12:18:27.905Z,95563.81
2022-09-16T12:21:02.720Z,95553.72
2022-09-16T12:23:34.190Z,95557.28
2022-09-16T12:26:24.220Z,95555.06
2022-09-16T12:29:06.903Z,95554.53
2022-09-16T12:31:59.274Z,95559.28
2022-09-16T12:34:34.944Z,95559.88
2022-09-16T12:37:13.367Z,95562.00
2022-09-16T12:39:39.872Z,95562.28
2022-09-16T12:42:45.916Z,95564.34
2022-09-16T12:45:46.921Z,95556.16
2022-09-16T12:48:52.047Z,95553.44
2022-09-16T12:51:50.152Z,95554.28
2022-09-16T12:54:51.127Z,95551.16
2022-09-16T12:57:45.564Z,95550.38
2022-09-16T13:00:43.458Z,95555.47
2022-09-16T13:03:21.151Z,95552.59
2022-09-16T13:05:51.907Z,95550.84
2022-09-16T13:08:26.328Z,95555.78
2022-09-16T13:13:50.308Z,95545.34
2022-09-16T13:16:34.398Z,95536.00
2022-09-16T13:19:34.470Z,95545.59
2022-09-16T13:22:30.673Z,95540.63
2022-09-16T13:25:25.720Z,95539.00
2022-09-16T13:28:01.620Z,95550.25
2022-09-16T13:30:33.139Z,95549.44
2022-09-16T13:33:02.184Z,95555.59
2022-09-16T13:35:31.446Z,95546.47
2022-09-16T13:38:00.506Z,95541.50
2022-09-16T13:40:29.759Z,95536.31
2022-09-16T13:43:08.472Z,95551.06
2022-09-16T13:45:36.447Z,95552.03
2022-09-16T13:48:14.573Z,95555.59
2022-09-16T13:50:44.643Z,95555.41
2022-09-16T13:53:21.452Z,95544.84
2022-09-16T13:55:50.553Z,95554.00
2022-09-16T13:58:29.823Z,95550.47
2022-09-16T14:01:10.744Z,95545.56
2022-09-16T14:03:59.761Z,95536.91
2022-09-16T14:07:01.814Z,95542.94
2022-09-16T14:09:46.743Z,95536.81
2022-09-16T14:12:39.317Z,95540.50
2022-09-16T14:15:07.583Z,95542.50
2022-09-16T14:17:46.517Z,95537.84
2022-09-16T14:20:20.366Z,95541.78
2022-09-16T14:22:47.419Z,95529.44
2022-09-16T14:25:31.047Z,95529.13
2022-09-16T14:28:15.432Z,95528.69
2022-09-16T14:30:51.255Z,95531.00
2022-09-16T14:33:22.141Z,95532.88
2022-09-16T14:35:49.542Z,95528.56
2022-09-16T14:38:43.820Z,95529.63
2022-09-16T14:41:08.856Z,95532.31
2022-09-16T14:43:38.159Z,95533.78
2022-09-16T14:46:07.514Z,95540.69
2022-09-16T14:48:38.900Z,95542.44
2022-09-16T14:51:26.569Z,95531.59
2022-09-16T14:54:15.476Z,95536.13
2022-09-16T14:56:42.138Z,95535.78
2022-09-16T14:59:13.535Z,95537.28
2022-09-16T15:01:40.819Z,95539.94
2022-09-16T15:04:11.738Z,95533.06
2022-09-16T15:06:47.723Z,95533.34
2022-09-16T15:09:23.034Z,95540.44
2022-09-16T15:11:55.508Z,95528.16
2022-09-16T15:14:22.623Z,95536.03
2022-09-16T15:16:53.226Z,95525.34
2022-09-16T15:19:23.581Z,95531.19
2022-09-16T15:21:50.814Z,95517.03
2022-09-16T15:24:22.929Z,95518.94
2022-09-16T15:26:49.640Z,95517.34
2022-09-16T15:29:19.409Z,95516.44
2022-09-16T15:31:46.623Z,95509.97
2022-09-16T15:34:19.471Z,95513.91
2022-09-16T15:36:47.608Z,95524.00
2022-09-16T15:39:38.093Z,95521.22
2022-09-16T15:42:16.674Z,95517.66
2022-09-16T15:44:49.887Z,95520.81
2022-09-16T15:47:29.276Z,95522.94
2022-09-16T15:50:02.930Z,95515.88
2022-09-16T15:52:49.035Z,95513.91
2022-09-16T15:55:28.391Z,95505.84
2022-09-16T15:58:03.383Z,95510.53
2022-09-16T16:01:01.208Z,95507.47
2022-09-16T16:03:36.326Z,95496.59
2022-09-16T16:06:05.340Z,95509.56
2022-09-16T16:08:41.479Z,95505.34
2022-09-16T16:11:11.508Z,95511.50
2022-09-16T16:13:38.843Z,95517.84
2022-09-16T16:16:06.129Z,95512.13
2022-09-16T16:18:33.147Z,95511.28
2022-09-16T16:21:04.167Z,95528.09
2022-09-16T16:23:30.511Z,95530.63
2022-09-16T16:25:57.496Z,95518.91
2022-09-16T16:28:23.828Z,95524.22
2022-09-16T16:30:50.305Z,95527.72
2022-09-16T16:33:17.206Z,95525.28
2022-09-16T16:35:43.520Z,95521.84
2022-09-16T16:38:10.323Z,95524.84
2022-09-16T16:40:37.143Z,95533.72
2022-09-16T16:43:03.528Z,95538.47
2022-09-16T16:45:31.128Z,95534.56
2022-09-16T16:47:57.680Z,95528.72
2022-09-16T16:50:24.043Z,95535.75
2022-09-16T16:52:53.011Z,95545.25
2022-09-16T16:55:19.777Z,95541.66
2022-09-16T16:57:46.161Z,95547.72
2022-09-16T17:00:14.287Z,95543.97
2022-09-16T17:02:41.076Z,95538.19
2022-09-16T17:05:07.745Z,95540.06
2022-09-16T17:07:34.071Z,95536.09
2022-09-16T17:10:01.176Z,95541.41
2022-09-16T17:12:27.607Z,95539.78
2022-09-16T17:14:53.998Z,95538.50
2022-09-16T17:17:20.896Z,95539.75
2022-09-16T17:19:47.196Z,95542.97
2022-09-16T17:22:13.902Z,95535.84
2022-09-16T17:24:40.252Z,95530.44
2022-09-16T17:27:06.618Z,95542.47
2022-09-16T17:29:33.501Z,95539.47
2022-09-16T17:32:02.308Z,95535.59
2022-09-16T17:34:28.668Z,95530.41
2022-09-16T17:36:54.999Z,95530.88
2022-09-16T17:39:22.033Z,95537.69
2022-09-16T17:41:49.729Z,95536.28
2022-09-16T17:44:17.997Z,95529.28
2022-09-16T17:46:45.286Z,95518.19
2022-09-16T17:49:21.421Z,95524.47
2022-09-16T17:51:48.817Z,95527.75
2022-09-16T17:54:15.314Z,95521.03
2022-09-16T17:56:43.297Z,95532.38
2022-09-16T17:59:10.982Z,95530.06
2022-09-16T18:01:37.466Z,95534.44
2022-09-16T18:04:04.964Z,95531.78
2022-09-16T18:06:35.959Z,95542.19
2022-09-16T18:09:04.596Z,95533.38
2022-09-16T18:11:31.683Z,95539.63
2022-09-16T18:14:00.154Z,95548.50
2022-09-16T18:16:27.812Z,95541.31
2022-09-16T18:18:56.226Z,95543.75
2022-09-16T18:21:23.853Z,95544.00
2022-09-16T18:24:02.430Z,95553.38
2022-09-16T18:26:30.019Z,95552.56
2022-09-16T18:29:13.855Z,95559.38
2022-09-16T18:31:46.719Z,95556.81
2022-09-16T18:34:14.986Z,95557.66
2022-09-16T18:36:41.846Z,95554.88
2022-09-16T18:39:13.305Z,95560.66
2022-09-16T18:41:42.076Z,95554.88
2022-09-16T18:44:20.405Z,95570.13
2022-09-16T18:46:47.340Z,95572.44
2022-09-16T18:49:16.168Z,95567.69
2022-09-16T18:51:51.614Z,95557.97
2022-09-16T18:54:28.900Z,95570.72
2022-09-16T18:56:57.628Z,95567.59
2022-09-16T18:59:28.263Z,95581.09
2022-09-16T19:01:57.891Z,95615.31
2022-09-16T19:04:27.490Z,95614.06
2022-09-16T19:06:59.164Z,95608.38
2022-09-16T19:09:25.593Z,95608.97
2022-09-16T19:11:52.870Z,95611.28
2022-09-16T19:14:22.641Z,95608.75
2022-09-16T19:16:49.095Z,95608.75
2022-09-16T19:19:15.967Z,95621.34
2022-09-16T19:21:44.259Z,95610.47
2022-09-16T19:24:16.468Z,95615.91
2022-09-16T19:26:45.246Z,95614.75
2022-09-16T19:29:14.272Z,95612.41
2022-09-16T19:31:42.607Z,95610.25
2022-09-16T19:34:10.397Z,95606.19
2022-09-16T19:36:37.858Z,95604.69
2022-09-16T19:39:06.312Z,95605.16
2022-09-16T19:41:34.441Z,95603.19
2022-09-16T19:44:04.494Z,95606.00
2022-09-16T19:46:35.368Z,95593.41
2022-09-16T19:49:02.598Z,95593.41
2022-09-16T19:51:29.756Z,95588.69
2022-09-16T19:53:58.246Z,95587.97
2022-09-16T19:56:26.983Z,95589.47
2022-09-16T19:58:54.887Z,95587.53
2022-09-16T20:01:39.180Z,95598.72
2022-09-16T20:04:08.189Z,95602.53
2022-09-16T20:06:37.676Z,95597.47
2022-09-16T20:09:07.588Z,95605.66
2022-09-16T20:11:36.313Z,95608.53
2022-09-16T20:14:08.853Z,95614.66
2022-09-16T20:16:37.494Z,95614.56
2022-09-16T20:19:12.887Z,95616.31
2022-09-16T20:21:39.368Z,95612.78
2022-09-16T20:24:07.996Z,95604.38
2022-09-16T20:26:36.042Z,95611.47
2022-09-16T20:29:03.816Z,95622.72
2022-09-16T20:31:34.304Z,95630.47
2022-09-16T20:34:01.800Z,95628.94
2022-09-16T20:36:30.616Z,95617.59
2022-09-16T20:38:59.517Z,95618.41
2022-09-16T20:41:29.058Z,95616.72
2022-09-16T20:43:56.710Z,95611.25
2022-09-16T20:46:44.775Z,95603.53
2022-09-16T20:49:14.959Z,95596.34
2022-09-16T20:51:41.392Z,95605.09
2022-09-16T20:54:10.716Z,95614.66
2022-09-16T20:56:39.346Z,95628.22
2022-09-16T20:59:08.298Z,95635.13
2022-09-16T21:01:37.126Z,95640.91
2022-09-16T21:04:11.121Z,95643.97
2022-09-16T21:06:37.809Z,95646.31
2022-09-16T21:09:08.109Z,95645.94
2022-09-16T21:11:35.859Z,95650.06
2022-09-16T21:14:06.266Z,95645.13
2022-09-16T21:16:34.004Z,95652.19
2022-09-16T21:19:03.438Z,95655.00
2022-09-16T21:21:30.204Z,95652.53
2022-09-16T21:23:58.173Z,95658.41
2022-09-16T21:26:29.087Z,95656.94
2022-09-16T21:28:59.554Z,95657.41
2022-09-16T21:31:28.224Z,95665.94
2022-09-16T21:33:57.200Z,95653.09
2022-09-16T21:36:24.864Z,95668.88
2022-09-16T21:38:51.667Z,95661.06
2022-09-16T21:41:21.579Z,95661.53
2022-09-16T21:43:51.190Z,95658.22
2022-09-16T21:46:20.294Z,95650.25
2022-09-16T21:48:50.902Z,95663.88
2022-09-16T21:51:19.150Z,95665.75
2022-09-16T21:53:47.227Z,95664.56
2022-09-16T21:56:17.642Z,95674.06
2022-09-16T21:58:44.636Z,95669.06
2022-09-16T22:01:20.312Z,95661.81
2022-09-16T22:03:53.651Z,95669.88
2022-09-16T22:06:22.459Z,95667.22
2022-09-16T22:08:49.866Z,95673.81
2022-09-16T22:11:18.240Z,95670.03
2022-09-16T22:13:45.452Z,95676.94
2022-09-16T22:16:14.064Z,95673.63
2022-09-16T22:18:41.073Z,95683.75
2022-09-16T22:21:10.318Z,95682.44
2022-09-16T22:23:38.223Z,95685.50
2022-09-16T22:26:13.151Z,95693.09
2022-09-16T22:28:40.115Z,95690.72
2022-09-16T22:31:16.049Z,95687.72
2022-09-16T22:33:44.969Z,95678.28
2022-09-16T22:36:14.442Z,95681.97
2022-09-16T22:38:49.080Z,95679.34
2022-09-16T22:41:16.408Z,95674.09
2022-09-16T22:43:44.753Z,95675.66
2022-09-16T22:46:16.985Z,95671.25
2022-09-16T22:48:44.243Z,95678.47
2022-09-16T22:51:12.714Z,95659.63
2022-09-16T22:53:40.294Z,95662.72
2022-09-16T22:56:11.792Z,95667.28
2022-09-16T22:58:38.767Z,95664.78
2022-09-16T23:01:26.542Z,95656.00
2022-09-16T23:03:55.419Z,95655.25
2022-09-16T23:06:24.511Z,95645.16
2022-09-16T23:08:51.983Z,95650.63
2022-09-16T23:11:25.187Z,95643.69
2022-09-16T23:13:55.345Z,95659.81
2022-09-16T23:16:24.665Z,95651.72
2022-09-16T23:18:51.020Z,95650.63
2022-09-16T23:21:20.239Z,95651.06
2022-09-16T23:23:49.680Z,95656.94
2022-09-16T23:26:19.396Z,95654.44
2022-09-16T23:28:47.340Z,95660.47
2022-09-16T23:31:16.403Z,95652.69
2022-09-16T23:33:44.249Z,95646.28
2022-09-16T23:36:13.221Z,95647.00
2022-09-16T23:38:41.240Z,95651.44
2022-09-16T23:41:13.224Z,95650.91
2022-09-16T23:43:42.138Z,95653.41
2022-09-16T23:46:14.516Z,95652.25
2022-09-16T23:48:43.511Z,95657.84
2022-09-16T23:51:09.983Z,95660.22
2022-09-16T23:53:37.767Z,95658.72
2022-09-16T23:56:09.098Z,95659.91
2022-09-16T23:58:35.468Z,95661.97
